Terminal Aerodrome Forecast
Issued by NWS

Home | Current Version | Previous Version | Text Only | Print | Product List | Glossary On
Versions: 1 2 3 4 5 6 7 8 9 10 11 12 13 14 15 16 17 18 19 20 21 22 23 24 25 26 27 28 29 30 31 32 33
000
FTUS45 KLKN 230000 AAA
TAFELY
TAF AMD
KELY 230021Z 2300/2324 18009KT P6SM VCTS BKN080CB OVC100
      TEMPO 2300/2303 VRB15G40KT 3SM -TSRA SCT030CB BKN050
     FM230300 19010KT P6SM VCTS OVC070CB
     FM230500 20009KT P6SM VCSH OVC090
     FM230900 19008KT P6SM SCT090
     FM232000 31008KT P6SM SKC=

USA.gov is the U.S. government's official web portal to all federal, state and local government web resources and services.